Los Cuates, Texas
Current Conditions -  °F | °C
As of 10:28 AM on Friday 21 Nov 2014 (Local Time) from KHRL Reporting Station
Overcast Overcast  
Wind Chill: 75°   Ceiling: 1900
Heat Index: 75°   Visibility: 10mi
Dew Point: 72°   Wind: 13mph
Humidity: 89%   Direction: 140°SE
Pressure: 30.07"   Gusts: NA
Location:  26.1784°N, 97.6678°W
Report Text: KHRL 211628Z 14011KT 10SM BKN019 BKN030 OVC046 24/22 A3007 RMK AO2
Loading
Personal Weather Stations






























Interactive Weather Map New forecast layout! Learn more

10-Day Weather Forecast

Advertisements
Track Severe Weather on mobile